createdAt,value
2019-03-31T00:02:21.339Z,95124.74
2019-03-31T00:04:56.224Z,95115.80
2019-03-31T00:07:30.304Z,95118.39
2019-03-31T00:10:04.688Z,95115.82
2019-03-31T00:12:38.851Z,95116.37
2019-03-31T00:15:12.704Z,95115.75
2019-03-31T00:17:46.858Z,95110.86
2019-03-31T00:20:21.146Z,95111.61
2019-03-31T00:22:54.976Z,95106.53
2019-03-31T00:25:28.966Z,95106.03
2019-03-31T00:28:02.846Z,95099.30
2019-03-31T00:30:36.776Z,95095.64
2019-03-31T00:33:10.451Z,95095.72
2019-03-31T00:35:44.512Z,95091.44
2019-03-31T00:38:36.919Z,95092.48
2019-03-31T00:41:10.501Z,95097.20
2019-03-31T00:43:44.238Z,95095.03
2019-03-31T00:46:17.943Z,95089.25
2019-03-31T00:48:51.574Z,95087.91
2019-03-31T00:51:25.332Z,95083.41
2019-03-31T00:53:58.936Z,95084.06
2019-03-31T00:56:32.555Z,95084.92
2019-03-31T00:59:06.380Z,95088.28
2019-03-31T01:01:51.799Z,95084.29
2019-03-31T01:04:29.826Z,95083.81
2019-03-31T01:07:04.788Z,95086.78
2019-03-31T01:09:38.851Z,95082.73
2019-03-31T01:12:12.964Z,95077.73
2019-03-31T01:14:47.495Z,95078.11
2019-03-31T01:17:21.913Z,95074.55
2019-03-31T01:19:58.566Z,95071.84
2019-03-31T01:22:32.483Z,95069.22
2019-03-31T01:25:08.917Z,95070.97
2019-03-31T01:27:42.596Z,95071.20
2019-03-31T01:30:18.447Z,95062.91
2019-03-31T01:32:52.594Z,95076.87
2019-03-31T01:35:26.378Z,95073.22
2019-03-31T01:38:00.091Z,95072.32
2019-03-31T01:40:33.754Z,95067.33
2019-03-31T01:43:07.511Z,95066.06
2019-03-31T01:45:41.215Z,95067.03
2019-03-31T01:48:15.415Z,95062.81
2019-03-31T01:50:49.198Z,95056.27
2019-03-31T01:53:22.782Z,95058.23
2019-03-31T01:55:56.419Z,95053.77
2019-03-31T01:58:30.501Z,95054.62
2019-03-31T02:01:05.793Z,95052.88
2019-03-31T02:03:39.563Z,95052.83
2019-03-31T02:06:13.576Z,95051.01
2019-03-31T02:08:47.113Z,95051.25
2019-03-31T02:11:21.032Z,95045.11
2019-03-31T02:13:54.820Z,95043.05
2019-03-31T02:16:29.226Z,95041.65
2019-03-31T02:19:03.241Z,95039.57
2019-03-31T02:21:37.095Z,95040.55
2019-03-31T02:24:10.885Z,95048.66
2019-03-31T02:26:44.856Z,95048.42
2019-03-31T02:29:18.617Z,95046.48
2019-03-31T02:31:52.350Z,95046.81
2019-03-31T02:34:26.450Z,95044.12
2019-03-31T02:37:00.128Z,95046.94
2019-03-31T02:39:33.890Z,95040.88
2019-03-31T02:42:07.949Z,95040.17
2019-03-31T02:44:41.756Z,95033.03
2019-03-31T02:47:15.265Z,95036.40
2019-03-31T02:49:49.155Z,95034.55
2019-03-31T02:52:23.021Z,95029.16
2019-03-31T02:54:56.674Z,95029.11
2019-03-31T02:57:30.947Z,95025.05
2019-03-31T03:00:05.850Z,95028.83
2019-03-31T03:02:42.676Z,95031.27
2019-03-31T03:05:19.479Z,95025.06
2019-03-31T03:07:52.527Z,95028.03
2019-03-31T03:10:30.893Z,95037.52
2019-03-31T03:13:07.136Z,95034.99
2019-03-31T03:16:01.582Z,95033.03
2019-03-31T03:18:35.259Z,95035.74
2019-03-31T03:21:10.598Z,95034.97
2019-03-31T03:23:44.120Z,95038.38
2019-03-31T03:26:18.126Z,95033.78
2019-03-31T03:28:51.960Z,95038.66
2019-03-31T03:31:25.799Z,95037.68
2019-03-31T03:34:01.791Z,95040.27
2019-03-31T03:36:35.708Z,95040.99
2019-03-31T03:39:11.121Z,95033.47
2019-03-31T03:41:44.997Z,95031.84
2019-03-31T03:44:20.858Z,95031.48
2019-03-31T03:46:54.790Z,95028.86
2019-03-31T03:49:28.713Z,95029.81
2019-03-31T03:52:03.893Z,95032.89
2019-03-31T03:54:37.689Z,95034.52
2019-03-31T03:57:11.451Z,95024.05
2019-03-31T03:59:45.576Z,95023.87
2019-03-31T04:02:19.563Z,95026.59
2019-03-31T04:04:53.202Z,95017.38
2019-03-31T04:07:27.136Z,95027.31
2019-03-31T04:10:01.026Z,95025.81
2019-03-31T04:12:34.719Z,95023.08
2019-03-31T04:15:08.486Z,95021.92
2019-03-31T04:17:42.372Z,95029.58
2019-03-31T04:20:16.543Z,95024.92
2019-03-31T04:22:50.669Z,95022.69
2019-03-31T04:25:24.340Z,95021.61
2019-03-31T04:27:58.051Z,95015.23
2019-03-31T04:30:31.813Z,95017.80
2019-03-31T04:33:06.733Z,95016.43
2019-03-31T04:35:44.171Z,95015.66
2019-03-31T04:38:23.865Z,95012.34
2019-03-31T04:40:57.267Z,95009.99
2019-03-31T04:43:33.122Z,95011.95
2019-03-31T04:46:10.760Z,95021.23
2019-03-31T04:48:47.277Z,95022.94
2019-03-31T04:51:24.113Z,95019.17
2019-03-31T04:53:59.810Z,95021.63
2019-03-31T04:56:35.971Z,95018.18
2019-03-31T04:59:12.596Z,95019.23
2019-03-31T05:01:49.801Z,95017.13
2019-03-31T05:04:25.689Z,95015.52
2019-03-31T05:06:59.845Z,95015.16
2019-03-31T05:09:37.368Z,95015.29
2019-03-31T05:12:16.870Z,95013.67
2019-03-31T05:14:53.610Z,95016.13
2019-03-31T05:17:31.106Z,95009.50
2019-03-31T05:20:07.228Z,95002.84
2019-03-31T05:23:06.254Z,95009.42
2019-03-31T05:26:05.142Z,95001.73
2019-03-31T05:28:44.135Z,95002.36
2019-03-31T05:31:20.113Z,94996.50
2019-03-31T05:34:00.238Z,94994.17
2019-03-31T05:36:42.748Z,94996.14
2019-03-31T05:39:26.172Z,94990.35
2019-03-31T05:42:03.071Z,94989.45
2019-03-31T05:44:45.948Z,94988.67
2019-03-31T05:47:25.160Z,94992.79
2019-03-31T05:50:02.867Z,94983.39
2019-03-31T05:52:42.821Z,94979.80
2019-03-31T05:55:23.356Z,94980.71
2019-03-31T05:58:02.495Z,94986.84
2019-03-31T06:00:47.154Z,94976.74
2019-03-31T06:03:24.100Z,94969.14
2019-03-31T06:06:01.760Z,94971.59
2019-03-31T06:08:38.261Z,94976.25
2019-03-31T06:11:15.835Z,94976.97
2019-03-31T06:13:53.559Z,94978.78
2019-03-31T06:16:29.734Z,94970.87
2019-03-31T06:19:07.675Z,94978.33
2019-03-31T06:21:44.187Z,94972.14
2019-03-31T06:24:20.706Z,94976.09
2019-03-31T06:26:59.827Z,94970.80
2019-03-31T06:29:38.122Z,94980.44
2019-03-31T06:32:15.340Z,94978.25
2019-03-31T06:34:55.609Z,94982.53
2019-03-31T06:37:34.466Z,94979.19
2019-03-31T06:40:10.408Z,94976.13
2019-03-31T06:42:48.068Z,94973.33
2019-03-31T06:45:23.905Z,94974.41
2019-03-31T06:47:59.593Z,94973.77
2019-03-31T06:50:36.872Z,94968.02
2019-03-31T06:53:15.583Z,94968.06
2019-03-31T06:55:53.366Z,94961.57
2019-03-31T06:58:30.116Z,94960.39
2019-03-31T07:01:06.854Z,94959.06
2019-03-31T07:03:47.734Z,94951.36
2019-03-31T07:06:24.788Z,94953.44
2019-03-31T07:09:05.972Z,94952.56
2019-03-31T07:11:40.590Z,94953.30
2019-03-31T07:14:18.403Z,94954.66
2019-03-31T07:16:57.369Z,94954.54
2019-03-31T07:19:34.922Z,94949.45
2019-03-31T07:22:12.236Z,94946.56
2019-03-31T07:24:52.458Z,94949.64
2019-03-31T07:27:36.450Z,94953.39
2019-03-31T07:30:13.659Z,94948.66
2019-03-31T07:32:50.025Z,94950.94
2019-03-31T07:35:25.464Z,94943.19
2019-03-31T07:38:04.665Z,94941.28
2019-03-31T07:40:42.076Z,94945.18
2019-03-31T07:43:18.735Z,94939.75
2019-03-31T07:45:55.904Z,94940.08
2019-03-31T07:48:37.380Z,94940.95
2019-03-31T07:51:14.091Z,94938.38
2019-03-31T07:53:53.116Z,94930.27
2019-03-31T07:56:40.936Z,94923.78
2019-03-31T07:59:22.284Z,94920.83
2019-03-31T08:02:01.376Z,94918.09
2019-03-31T08:04:42.305Z,94914.52
2019-03-31T08:07:21.429Z,94913.95
2019-03-31T08:09:57.296Z,94908.69
2019-03-31T08:12:34.416Z,94905.22
2019-03-31T08:15:10.949Z,94906.05
2019-03-31T08:17:47.531Z,94901.72
2019-03-31T08:20:28.055Z,94905.44
2019-03-31T08:23:07.779Z,94897.94
2019-03-31T08:25:44.815Z,94898.25
2019-03-31T08:28:25.123Z,94894.85
2019-03-31T08:31:01.951Z,94892.21
2019-03-31T08:33:38.228Z,94883.81
2019-03-31T08:36:14.206Z,94881.27
2019-03-31T08:38:49.675Z,94872.47
2019-03-31T08:41:28.355Z,94866.65
2019-03-31T08:44:08.456Z,94869.70
2019-03-31T08:46:47.424Z,94861.81
2019-03-31T08:49:25.953Z,94855.38
2019-03-31T08:52:03.160Z,94858.98
2019-03-31T08:54:41.128Z,94852.06
2019-03-31T08:57:18.499Z,94856.01
2019-03-31T09:00:01.304Z,94844.83
2019-03-31T09:02:39.057Z,94844.95
2019-03-31T09:05:17.656Z,94838.10
2019-03-31T09:07:52.674Z,94836.67
2019-03-31T09:10:30.022Z,94832.44
2019-03-31T09:13:06.627Z,94834.01
2019-03-31T09:15:47.012Z,94829.06
2019-03-31T09:18:26.769Z,94829.30
2019-03-31T09:21:23.170Z,94826.88
2019-03-31T09:24:02.582Z,94816.63
2019-03-31T09:26:39.528Z,94817.25
2019-03-31T09:29:17.365Z,94808.58
2019-03-31T09:31:58.080Z,94804.59
2019-03-31T09:34:36.137Z,94798.39
2019-03-31T09:37:10.676Z,94801.11
2019-03-31T09:39:45.795Z,94793.63
2019-03-31T09:42:23.272Z,94783.65
2019-03-31T09:44:57.792Z,94776.89
2019-03-31T09:47:32.767Z,94765.92
2019-03-31T09:50:08.805Z,94769.11
2019-03-31T09:52:42.823Z,94771.87
2019-03-31T09:55:17.364Z,94766.39
2019-03-31T09:58:08.660Z,94756.98
2019-03-31T10:00:49.531Z,94763.79
2019-03-31T10:03:23.413Z,94754.91
2019-03-31T10:06:09.889Z,94747.91
2019-03-31T10:08:33.754Z,94750.72
2019-03-31T10:11:11.763Z,94746.55
2019-03-31T10:13:46.884Z,94740.53
2019-03-31T10:16:21.012Z,94739.53
2019-03-31T10:18:55.918Z,94731.55
2019-03-31T10:21:30.235Z,94728.05
2019-03-31T10:24:08.066Z,94719.14
2019-03-31T10:26:42.172Z,94724.55
2019-03-31T10:29:16.202Z,94716.92
2019-03-31T10:31:50.725Z,94717.81
2019-03-31T10:34:24.751Z,94728.66
2019-03-31T10:36:58.813Z,94704.77
2019-03-31T10:39:32.706Z,94708.62
2019-03-31T10:42:06.761Z,94704.13
2019-03-31T10:44:41.091Z,94702.91
2019-03-31T10:47:15.433Z,94698.70
2019-03-31T10:49:49.848Z,94697.30
2019-03-31T10:52:23.900Z,94701.03
2019-03-31T10:54:57.550Z,94701.56
2019-03-31T10:57:31.521Z,94692.63
2019-03-31T11:00:07.007Z,94693.62
2019-03-31T11:02:40.963Z,94692.29
2019-03-31T11:05:15.451Z,94692.48
2019-03-31T11:07:49.913Z,94689.67
2019-03-31T11:10:25.528Z,94682.20
2019-03-31T11:12:59.638Z,94677.25
2019-03-31T11:15:33.739Z,94672.78
2019-03-31T11:18:08.009Z,94669.05
2019-03-31T11:20:42.602Z,94662.92
2019-03-31T11:23:21.209Z,94655.73
2019-03-31T11:25:55.091Z,94657.40
2019-03-31T11:28:29.506Z,94656.48
2019-03-31T11:31:04.534Z,94655.84
2019-03-31T11:33:38.931Z,94637.59
2019-03-31T11:36:13.010Z,94636.34
2019-03-31T11:38:57.228Z,94630.61
2019-03-31T11:41:34.365Z,94633.36
2019-03-31T11:44:08.110Z,94623.88
2019-03-31T11:46:42.653Z,94624.45
2019-03-31T11:49:32.624Z,94620.14
2019-03-31T11:52:09.547Z,94614.53
2019-03-31T11:54:45.963Z,94616.53
2019-03-31T11:57:20.448Z,94611.67
2019-03-31T11:59:54.932Z,94594.83
2019-03-31T12:02:28.827Z,94608.17
2019-03-31T12:05:10.110Z,94607.01
2019-03-31T12:07:56.548Z,94595.59
2019-03-31T12:10:37.691Z,94589.13
2019-03-31T12:13:12.057Z,94601.88
2019-03-31T12:15:47.011Z,94584.22
2019-03-31T12:18:21.704Z,94587.63
2019-03-31T12:20:56.863Z,94591.91
2019-03-31T12:23:32.862Z,94589.23
2019-03-31T12:26:09.279Z,94593.95
2019-03-31T12:28:48.050Z,94585.91
2019-03-31T12:31:22.702Z,94578.58
2019-03-31T12:33:56.805Z,94582.66
2019-03-31T12:36:30.654Z,94584.91
2019-03-31T12:39:07.524Z,94574.91
2019-03-31T12:41:41.897Z,94574.85
2019-03-31T12:44:16.305Z,94559.65
2019-03-31T12:46:50.872Z,94566.31
2019-03-31T12:49:24.827Z,94562.67
2019-03-31T12:51:59.146Z,94568.59
2019-03-31T12:54:33.274Z,94558.56
2019-03-31T12:57:07.749Z,94559.29
2019-03-31T12:59:41.641Z,94552.89
2019-03-31T13:02:16.667Z,94559.36
2019-03-31T13:04:50.841Z,94557.77
2019-03-31T13:07:25.014Z,94548.25
2019-03-31T13:09:59.554Z,94559.70
2019-03-31T13:12:36.031Z,94549.17
2019-03-31T13:15:10.444Z,94543.27
2019-03-31T13:17:44.464Z,94533.50
2019-03-31T13:20:19.066Z,94533.66
2019-03-31T13:22:53.745Z,94524.41
2019-03-31T13:25:28.014Z,94523.81
2019-03-31T13:28:05.372Z,94529.81
2019-03-31T13:30:38.036Z,94527.06
2019-03-31T13:33:12.129Z,94517.85
2019-03-31T13:35:46.454Z,94517.53
2019-03-31T13:38:20.581Z,94508.70
2019-03-31T13:40:55.732Z,94504.63
2019-03-31T13:43:29.896Z,94496.97
2019-03-31T13:46:16.853Z,94505.15
2019-03-31T13:49:24.224Z,94500.97
2019-03-31T13:51:58.232Z,94504.15
2019-03-31T13:54:32.272Z,94496.94
2019-03-31T13:57:07.161Z,94493.45
2019-03-31T13:59:43.162Z,94494.90
2019-03-31T14:02:17.722Z,94487.70
2019-03-31T14:04:52.159Z,94491.37
2019-03-31T14:07:26.530Z,94490.92
2019-03-31T14:10:01.000Z,94483.42
2019-03-31T14:12:35.202Z,94489.27
2019-03-31T14:15:19.106Z,94482.38
2019-03-31T14:17:46.550Z,94488.59
2019-03-31T14:20:20.471Z,94481.86
2019-03-31T14:22:57.671Z,94481.66
2019-03-31T14:25:32.509Z,94482.02
2019-03-31T14:28:08.218Z,94471.48
2019-03-31T14:30:46.159Z,94475.94
2019-03-31T14:33:20.538Z,94472.59
2019-03-31T14:35:54.869Z,94466.48
2019-03-31T14:38:39.923Z,94469.16
2019-03-31T14:41:11.765Z,94468.27
2019-03-31T14:43:46.600Z,94466.91
2019-03-31T14:46:21.198Z,94472.14
2019-03-31T14:48:56.379Z,94468.27
2019-03-31T14:51:33.254Z,94474.02
2019-03-31T14:54:07.717Z,94477.55
2019-03-31T14:56:41.669Z,94472.92
2019-03-31T14:59:15.957Z,94470.80
2019-03-31T15:01:51.989Z,94467.85
2019-03-31T15:04:26.376Z,94472.30
2019-03-31T15:07:01.276Z,94470.06
2019-03-31T15:09:36.508Z,94467.19
2019-03-31T15:12:10.303Z,94471.75
2019-03-31T15:14:44.846Z,94472.88
2019-03-31T15:17:21.879Z,94463.95
2019-03-31T15:19:58.659Z,94470.90
2019-03-31T15:22:33.088Z,94468.91
2019-03-31T15:25:07.326Z,94468.57
2019-03-31T15:27:42.854Z,94466.81
2019-03-31T15:30:17.118Z,94465.73
2019-03-31T15:32:54.593Z,94469.77
2019-03-31T15:35:28.818Z,94465.92
2019-03-31T15:38:03.024Z,94469.97
2019-03-31T15:40:37.242Z,94482.45
2019-03-31T15:43:12.184Z,94481.16
2019-03-31T15:45:46.142Z,94480.38
2019-03-31T15:48:21.856Z,94477.31
2019-03-31T15:50:56.691Z,94484.24
2019-03-31T15:53:30.921Z,94487.45
2019-03-31T15:56:05.304Z,94486.94
2019-03-31T15:58:39.830Z,94484.16
2019-03-31T16:01:13.963Z,94486.81
2019-03-31T16:03:50.104Z,94493.13
2019-03-31T16:06:24.741Z,94492.11
2019-03-31T16:08:57.903Z,94490.87
2019-03-31T16:11:31.522Z,94483.61
2019-03-31T16:14:05.371Z,94492.26
2019-03-31T16:16:39.072Z,94494.22
2019-03-31T16:19:12.984Z,94494.86
2019-03-31T16:21:45.940Z,94498.88
2019-03-31T16:24:21.369Z,94509.42
2019-03-31T16:26:54.512Z,94505.78
2019-03-31T16:29:27.972Z,94510.45
2019-03-31T16:32:04.611Z,94506.22
2019-03-31T16:34:38.486Z,94509.84
2019-03-31T16:37:13.659Z,94512.50
2019-03-31T16:39:47.655Z,94512.13
2019-03-31T16:42:21.210Z,94512.43
2019-03-31T16:44:58.410Z,94511.20
2019-03-31T16:47:29.757Z,94516.59
2019-03-31T16:50:03.301Z,94509.11
2019-03-31T16:52:37.372Z,94520.58
2019-03-31T16:55:10.974Z,94517.70
2019-03-31T16:57:44.626Z,94522.19
2019-03-31T17:00:20.066Z,94525.11
2019-03-31T17:02:53.865Z,94524.59
2019-03-31T17:05:27.567Z,94535.37
2019-03-31T17:08:00.945Z,94544.88
2019-03-31T17:10:34.778Z,94542.47
2019-03-31T17:13:08.376Z,94546.44
2019-03-31T17:15:42.065Z,94547.30
2019-03-31T17:18:15.724Z,94546.97
2019-03-31T17:20:49.073Z,94551.32
2019-03-31T17:23:22.545Z,94554.88
2019-03-31T17:25:56.368Z,94555.38
2019-03-31T17:28:33.898Z,94560.44
2019-03-31T17:31:07.276Z,94565.31
2019-03-31T17:33:43.565Z,94569.23
2019-03-31T17:36:17.503Z,94568.43
2019-03-31T17:38:51.042Z,94571.64
2019-03-31T17:41:25.545Z,94574.57
2019-03-31T17:43:58.919Z,94584.41
2019-03-31T17:46:32.311Z,94583.89
2019-03-31T17:49:05.773Z,94583.83
2019-03-31T17:51:38.834Z,94583.52
2019-03-31T17:54:13.196Z,94591.32
2019-03-31T17:56:47.147Z,94595.30
2019-03-31T17:59:20.792Z,94595.13
2019-03-31T18:01:54.023Z,94599.63
2019-03-31T18:04:27.342Z,94598.66
2019-03-31T18:07:00.893Z,94606.65
2019-03-31T18:09:34.321Z,94613.52
2019-03-31T18:12:10.492Z,94612.67
2019-03-31T18:14:46.671Z,94618.77
2019-03-31T18:17:20.739Z,94624.62
2019-03-31T18:19:54.138Z,94624.69
2019-03-31T18:22:27.894Z,94625.27
2019-03-31T18:25:02.087Z,94619.72
2019-03-31T18:27:35.786Z,94629.14
2019-03-31T18:30:11.990Z,94635.31
2019-03-31T18:32:45.937Z,94635.70
2019-03-31T18:35:19.607Z,94638.76
2019-03-31T18:37:53.202Z,94645.20
2019-03-31T18:40:35.003Z,94642.59
2019-03-31T18:43:01.671Z,94647.90
2019-03-31T18:45:35.425Z,94649.77
2019-03-31T18:48:08.785Z,94645.98
2019-03-31T18:50:43.900Z,94645.63
2019-03-31T18:53:30.701Z,94655.61
2019-03-31T18:56:30.314Z,94644.53
2019-03-31T18:59:28.963Z,94647.74
2019-03-31T19:02:24.834Z,94641.61
2019-03-31T19:05:34.282Z,94644.05
2019-03-31T19:08:29.872Z,94636.70
2019-03-31T19:11:23.926Z,94636.75
2019-03-31T19:14:07.363Z,94645.86
2019-03-31T19:17:01.906Z,94648.63
2019-03-31T19:20:00.229Z,94644.91
2019-03-31T19:23:01.793Z,94645.05
2019-03-31T19:26:05.312Z,94652.45
2019-03-31T19:28:57.391Z,94650.84
2019-03-31T19:32:07.544Z,94650.75
2019-03-31T19:34:59.860Z,94654.00
2019-03-31T19:38:07.766Z,94644.27
2019-03-31T19:41:11.553Z,94649.70
2019-03-31T19:44:04.157Z,94651.16
2019-03-31T19:46:52.933Z,94655.17
2019-03-31T19:49:50.733Z,94649.08
2019-03-31T19:52:48.791Z,94653.69
2019-03-31T19:55:38.192Z,94648.06
2019-03-31T19:58:37.473Z,94658.17
2019-03-31T20:01:27.793Z,94656.38
2019-03-31T20:04:18.378Z,94652.00
2019-03-31T20:07:13.135Z,94655.52
2019-03-31T20:10:04.351Z,94657.00
2019-03-31T20:12:46.789Z,94659.13
2019-03-31T20:15:44.920Z,94657.89
2019-03-31T20:18:42.863Z,94662.17
2019-03-31T20:21:44.076Z,94656.55
2019-03-31T20:24:32.076Z,94655.05
2019-03-31T20:27:12.156Z,94656.30
2019-03-31T20:30:00.499Z,94653.69
2019-03-31T20:32:55.529Z,94658.34
2019-03-31T20:35:47.177Z,94655.93
2019-03-31T20:38:36.166Z,94658.53
2019-03-31T20:41:40.138Z,94652.42
2019-03-31T20:44:13.114Z,94650.08
2019-03-31T20:46:46.790Z,94647.40
2019-03-31T20:49:20.024Z,94655.30
2019-03-31T20:51:53.129Z,94654.52
2019-03-31T20:54:26.317Z,94651.57
2019-03-31T20:56:59.133Z,94655.12
2019-03-31T20:59:32.124Z,94648.94
2019-03-31T21:02:05.619Z,94646.36
2019-03-31T21:04:38.717Z,94647.55
2019-03-31T21:07:11.718Z,94643.92
2019-03-31T21:09:45.511Z,94649.40
2019-03-31T21:12:18.825Z,94642.94
2019-03-31T21:14:51.844Z,94649.81
2019-03-31T21:17:24.997Z,94648.73
2019-03-31T21:19:57.945Z,94649.17
2019-03-31T21:22:31.303Z,94656.13
2019-03-31T21:25:04.812Z,94656.52
2019-03-31T21:27:37.904Z,94652.71
2019-03-31T21:30:11.178Z,94661.45
2019-03-31T21:32:44.107Z,94657.66
2019-03-31T21:35:17.320Z,94665.48
2019-03-31T21:37:50.469Z,94666.39
2019-03-31T21:40:42.510Z,94664.68
2019-03-31T21:43:16.678Z,94670.77
2019-03-31T21:45:50.063Z,94666.41
2019-03-31T21:48:23.268Z,94667.91
2019-03-31T21:50:56.409Z,94664.39
2019-03-31T21:53:29.590Z,94669.47
2019-03-31T21:56:02.634Z,94668.56
2019-03-31T21:58:36.528Z,94669.86
2019-03-31T22:01:10.053Z,94665.70
2019-03-31T22:03:43.032Z,94667.77
2019-03-31T22:06:17.340Z,94666.22
2019-03-31T22:08:50.255Z,94662.84
2019-03-31T22:14:26.605Z,94662.12
2019-03-31T22:16:59.589Z,94656.84
2019-03-31T22:19:32.378Z,94660.30
2019-03-31T22:22:05.413Z,94655.27
2019-03-31T22:24:38.365Z,94653.79
2019-03-31T22:27:11.531Z,94652.41
2019-03-31T22:29:44.551Z,94651.88
2019-03-31T22:32:17.590Z,94650.91
2019-03-31T22:34:50.570Z,94638.59
2019-03-31T22:37:23.964Z,94646.88
2019-03-31T22:39:57.004Z,94639.66
2019-03-31T22:42:29.865Z,94636.45
2019-03-31T22:45:02.904Z,94639.00
2019-03-31T22:47:36.055Z,94640.71
2019-03-31T22:50:09.376Z,94646.64
2019-03-31T22:53:03.635Z,94640.21
2019-03-31T22:55:36.872Z,94643.20
2019-03-31T22:58:10.017Z,94640.16
2019-03-31T23:00:43.257Z,94647.92
2019-03-31T23:03:16.495Z,94647.86
2019-03-31T23:05:49.729Z,94643.92
2019-03-31T23:08:23.136Z,94642.68
2019-03-31T23:10:55.977Z,94644.08
2019-03-31T23:13:28.757Z,94640.34
2019-03-31T23:16:01.808Z,94644.77
2019-03-31T23:18:34.816Z,94640.42
2019-03-31T23:21:07.851Z,94638.11
2019-03-31T23:23:41.032Z,94635.87
2019-03-31T23:26:14.208Z,94633.19
2019-03-31T23:28:47.518Z,94626.65
2019-03-31T23:31:20.736Z,94629.95
2019-03-31T23:33:53.678Z,94622.62
2019-03-31T23:36:26.719Z,94621.30
2019-03-31T23:38:59.717Z,94622.82
2019-03-31T23:41:33.946Z,94625.99
2019-03-31T23:44:06.889Z,94622.41
2019-03-31T23:46:40.026Z,94622.17
2019-03-31T23:49:14.480Z,94625.21
2019-03-31T23:51:47.280Z,94623.52
2019-03-31T23:54:20.322Z,94622.13
2019-03-31T23:56:53.202Z,94617.30
2019-03-31T23:59:26.310Z,94610.69
